createdAt,value
2018-09-04T00:01:38.393Z,14.80
2018-09-04T00:03:42.728Z,14.90
2018-09-04T00:05:46.654Z,15.80
2018-09-04T00:07:50.587Z,15.10
2018-09-04T00:09:54.574Z,13.97
2018-09-04T00:11:58.680Z,13.87
2018-09-04T00:14:02.649Z,13.17
2018-09-04T00:16:09.211Z,13.13
2018-09-04T00:18:13.137Z,16.40
2018-09-04T00:20:16.978Z,16.90
2018-09-04T00:22:21.754Z,16.67
2018-09-04T00:24:25.647Z,16.97
2018-09-04T00:26:29.509Z,17.17
2018-09-04T00:28:33.387Z,16.07
2018-09-04T00:30:37.391Z,15.33
2018-09-04T00:32:41.400Z,15.50
2018-09-04T00:34:45.249Z,14.20
2018-09-04T00:36:49.219Z,15.27
2018-09-04T00:38:53.084Z,17.00
2018-09-04T00:40:56.937Z,13.70
2018-09-04T00:43:00.900Z,13.40
2018-09-04T00:45:04.873Z,12.43
2018-09-04T00:47:08.780Z,13.47
2018-09-04T00:49:12.684Z,12.20
2018-09-04T00:51:16.631Z,14.13
2018-09-04T00:53:20.671Z,13.90
2018-09-04T00:55:24.740Z,13.17
2018-09-04T00:57:28.768Z,13.03
2018-09-04T00:59:32.656Z,13.20
2018-09-04T01:01:36.654Z,11.97
2018-09-04T01:03:40.509Z,11.80
2018-09-04T01:05:44.629Z,12.37
2018-09-04T01:07:48.574Z,11.50
2018-09-04T01:09:52.648Z,12.07
2018-09-04T01:11:56.693Z,12.73
2018-09-04T01:14:00.654Z,12.60
2018-09-04T01:16:04.666Z,10.80
2018-09-04T01:18:09.172Z,11.07
2018-09-04T01:20:13.063Z,12.53
2018-09-04T01:22:16.982Z,11.67
2018-09-04T01:24:21.367Z,12.13
2018-09-04T01:26:29.816Z,12.50
2018-09-04T01:28:33.687Z,11.77
2018-09-04T01:30:37.585Z,13.27
2018-09-04T01:32:41.498Z,11.70
2018-09-04T01:34:45.411Z,11.33
2018-09-04T01:36:49.278Z,11.67
2018-09-04T01:38:53.167Z,10.57
2018-09-04T01:40:57.086Z,10.40
2018-09-04T01:43:00.851Z,10.20
2018-09-04T01:45:04.700Z,9.77
2018-09-04T01:47:08.550Z,10.60
2018-09-04T01:49:12.387Z,9.47
2018-09-04T01:51:16.169Z,8.93
2018-09-04T01:53:20.499Z,9.93
2018-09-04T01:55:24.338Z,9.53
2018-09-04T01:57:28.119Z,10.37
2018-09-04T01:59:31.984Z,10.47
2018-09-04T02:01:36.624Z,9.40
2018-09-04T02:03:40.622Z,9.20
2018-09-04T02:05:44.439Z,11.13
2018-09-04T02:07:48.278Z,10.93
2018-09-04T02:09:52.129Z,10.40
2018-09-04T02:11:56.214Z,11.30
2018-09-04T02:14:00.039Z,10.97
2018-09-04T02:16:03.915Z,11.00
2018-09-04T02:18:07.776Z,10.63
2018-09-04T02:20:11.594Z,11.40
2018-09-04T02:22:15.417Z,10.77
2018-09-04T02:24:19.353Z,10.10
2018-09-04T02:26:23.174Z,9.83
2018-09-04T02:28:27.386Z,9.87
2018-09-04T02:30:31.292Z,10.30
2018-09-04T02:32:35.155Z,9.80
2018-09-04T02:34:38.972Z,9.90
2018-09-04T02:36:42.819Z,9.33
2018-09-04T02:38:46.616Z,11.07
2018-09-04T02:40:50.451Z,10.97
2018-09-04T02:42:54.333Z,10.33
2018-09-04T02:44:58.173Z,11.07
2018-09-04T02:47:01.987Z,10.30
2018-09-04T02:49:06.434Z,11.63
2018-09-04T02:51:10.447Z,9.97
2018-09-04T02:53:14.192Z,11.27
2018-09-04T02:55:18.023Z,10.60
2018-09-04T02:57:21.811Z,10.80
2018-09-04T02:59:25.625Z,11.37
2018-09-04T03:01:30.099Z,10.90
2018-09-04T03:03:33.881Z,10.20
2018-09-04T03:05:37.905Z,10.43
2018-09-04T03:07:41.727Z,10.30
2018-09-04T03:09:45.742Z,10.73
2018-09-04T03:11:49.596Z,9.00
2018-09-04T03:13:53.500Z,9.60
2018-09-04T03:15:57.275Z,10.00
2018-09-04T03:18:01.071Z,9.03
2018-09-04T03:20:04.979Z,10.90
2018-09-04T03:22:09.493Z,9.50
2018-09-04T03:24:13.407Z,10.13
2018-09-04T03:26:17.438Z,11.00
2018-09-04T03:28:21.339Z,10.20
2018-09-04T03:30:25.339Z,10.70
2018-09-04T03:32:29.868Z,12.03
2018-09-04T03:34:39.839Z,10.50
2018-09-04T03:36:46.630Z,10.23
2018-09-04T03:38:50.584Z,10.70
2018-09-04T03:40:54.640Z,11.30
2018-09-04T03:42:58.615Z,9.87
2018-09-04T03:45:02.707Z,11.00
2018-09-04T03:47:16.674Z,11.30
2018-09-04T03:49:20.541Z,12.47
2018-09-04T03:51:24.648Z,11.33
2018-09-04T03:53:28.529Z,11.67
2018-09-04T03:55:38.105Z,11.73
2018-09-04T03:57:57.236Z,11.97
2018-09-04T04:00:02.023Z,11.70
2018-09-04T04:02:06.119Z,11.80
2018-09-04T04:04:10.191Z,13.67
2018-09-04T04:06:14.089Z,13.43
2018-09-04T04:08:18.029Z,13.53
2018-09-04T04:10:22.146Z,13.30
2018-09-04T04:12:27.774Z,14.07
2018-09-04T04:14:31.650Z,14.60
2018-09-04T04:16:45.743Z,14.97
2018-09-04T04:18:50.809Z,14.60
2018-09-04T04:21:01.404Z,16.50
2018-09-04T04:23:05.642Z,15.40
2018-09-04T04:25:09.608Z,16.27
2018-09-04T04:27:13.431Z,14.33
2018-09-04T04:29:17.415Z,15.10
2018-09-04T04:31:21.500Z,15.17
2018-09-04T04:33:26.059Z,15.73
2018-09-04T04:35:30.334Z,15.93
2018-09-04T04:37:34.185Z,15.97
2018-09-04T04:39:40.347Z,18.23
2018-09-04T04:41:44.235Z,17.83
2018-09-04T04:43:48.163Z,17.40
2018-09-04T04:45:52.305Z,18.37
2018-09-04T04:47:56.246Z,16.03
2018-09-04T04:50:00.171Z,17.83
2018-09-04T04:52:04.219Z,18.47
2018-09-04T04:54:08.092Z,16.17
2018-09-04T04:56:12.083Z,17.13
2018-09-04T04:58:15.894Z,16.30
2018-09-04T05:00:19.918Z,17.53
2018-09-04T05:02:23.753Z,17.80
2018-09-04T05:04:27.633Z,16.47
2018-09-04T05:06:31.914Z,18.83
2018-09-04T05:08:40.835Z,17.57
2018-09-04T05:10:44.745Z,17.33
2018-09-04T05:12:48.801Z,18.43
2018-09-04T05:14:52.800Z,18.10
2018-09-04T05:16:57.505Z,19.13
2018-09-04T05:19:01.466Z,17.70
2018-09-04T05:21:05.471Z,19.23
2018-09-04T05:23:09.371Z,17.53
2018-09-04T05:25:13.317Z,18.90
2018-09-04T05:27:17.209Z,20.43
2018-09-04T05:29:21.218Z,21.10
2018-09-04T05:31:25.308Z,19.90
2018-09-04T05:33:35.377Z,21.00
2018-09-04T05:35:43.030Z,19.03
2018-09-04T05:37:47.063Z,18.70
2018-09-04T05:39:50.932Z,19.03
2018-09-04T05:41:59.044Z,17.97
2018-09-04T05:44:03.047Z,18.10
2018-09-04T05:46:13.050Z,17.10
2018-09-04T05:48:17.442Z,16.63
2018-09-04T05:50:21.463Z,17.07
2018-09-04T05:52:25.284Z,15.97
2018-09-04T05:54:29.231Z,16.07
2018-09-04T05:56:33.397Z,16.37
2018-09-04T05:58:37.286Z,15.27
2018-09-04T06:00:44.242Z,13.77
2018-09-04T06:02:48.295Z,12.90
2018-09-04T06:04:52.267Z,11.47
2018-09-04T06:06:56.097Z,11.80
2018-09-04T06:09:00.128Z,11.47
2018-09-04T06:11:04.015Z,12.70
2018-09-04T06:13:07.954Z,12.23
2018-09-04T06:15:11.907Z,12.60
2018-09-04T06:17:15.825Z,13.63
2018-09-04T06:19:19.648Z,13.60
2018-09-04T06:21:23.513Z,13.20
2018-09-04T06:23:27.355Z,11.87
2018-09-04T06:25:31.264Z,13.77
2018-09-04T06:27:35.291Z,13.77
2018-09-04T06:29:39.398Z,13.90
2018-09-04T06:31:43.173Z,15.30
2018-09-04T06:33:47.152Z,15.13
2018-09-04T06:35:50.961Z,14.20
2018-09-04T06:37:54.864Z,14.77
2018-09-04T06:39:58.911Z,16.43
2018-09-04T06:42:02.944Z,14.47
2018-09-04T06:44:06.970Z,17.80
2018-09-04T06:46:10.801Z,16.20
2018-09-04T06:48:14.686Z,17.83
2018-09-04T06:50:18.556Z,16.57
2018-09-04T06:52:22.503Z,19.07
2018-09-04T06:54:26.355Z,15.93
2018-09-04T06:56:30.270Z,17.57
2018-09-04T06:58:34.272Z,17.43
2018-09-04T07:00:38.038Z,17.97
2018-09-04T07:02:42.000Z,17.70
2018-09-04T07:04:45.843Z,18.93
2018-09-04T07:06:49.693Z,19.23
2018-09-04T07:08:53.458Z,18.97
2018-09-04T07:10:57.342Z,20.73
2018-09-04T07:13:01.162Z,18.70
2018-09-04T07:15:05.331Z,20.93
2018-09-04T07:17:09.148Z,21.30
2018-09-04T07:19:17.604Z,20.60
2018-09-04T07:21:21.403Z,20.03
2018-09-04T07:23:25.298Z,18.00
2018-09-04T07:25:29.316Z,19.90
2018-09-04T07:27:33.137Z,19.37
2018-09-04T07:29:36.999Z,19.30
2018-09-04T07:31:41.212Z,20.43
2018-09-04T07:33:45.056Z,22.97
2018-09-04T07:35:48.842Z,19.90
2018-09-04T07:37:53.790Z,19.47
2018-09-04T07:39:57.691Z,20.10
2018-09-04T07:42:01.672Z,22.37
2018-09-04T07:44:05.628Z,22.30
2018-09-04T07:46:09.475Z,23.13
2018-09-04T07:48:13.285Z,20.60
2018-09-04T07:50:17.203Z,23.10
2018-09-04T07:52:21.078Z,22.20
2018-09-04T07:54:25.032Z,22.17
2018-09-04T07:56:29.513Z,21.97
2018-09-04T07:58:33.469Z,23.67
2018-09-04T08:00:37.251Z,22.73
2018-09-04T08:02:41.178Z,21.70
2018-09-04T08:04:45.037Z,22.60
2018-09-04T08:06:49.027Z,21.93
2018-09-04T08:08:52.943Z,24.13
2018-09-04T08:10:56.940Z,22.73
2018-09-04T08:13:00.884Z,22.47
2018-09-04T08:15:04.965Z,21.47
2018-09-04T08:17:08.847Z,21.40
2018-09-04T08:19:13.687Z,22.37
2018-09-04T08:21:17.522Z,19.53
2018-09-04T08:23:21.459Z,22.33
2018-09-04T08:25:26.147Z,21.70
2018-09-04T08:27:30.044Z,21.17
2018-09-04T08:29:33.999Z,19.70
2018-09-04T08:31:37.895Z,20.50
2018-09-04T08:33:41.714Z,21.47
2018-09-04T08:35:45.505Z,20.93
2018-09-04T08:37:51.620Z,19.77
2018-09-04T08:39:55.414Z,20.53
2018-09-04T08:41:59.369Z,19.47
2018-09-04T08:44:03.448Z,19.77
2018-09-04T08:46:07.350Z,20.90
2018-09-04T08:48:16.436Z,20.83
2018-09-04T08:50:20.352Z,23.00
2018-09-04T08:52:24.306Z,19.60
2018-09-04T08:54:28.353Z,20.17
2018-09-04T08:56:32.244Z,22.83
2018-09-04T08:58:36.192Z,22.10
2018-09-04T09:00:40.085Z,20.53
2018-09-04T09:02:43.952Z,19.30
2018-09-04T09:04:47.811Z,19.97
2018-09-04T09:06:51.741Z,19.10
2018-09-04T09:08:55.699Z,21.47
2018-09-04T09:10:59.564Z,19.37
2018-09-04T09:13:03.582Z,17.03
2018-09-04T09:15:07.609Z,16.40
2018-09-04T09:17:11.551Z,16.70
2018-09-04T09:19:15.455Z,15.77
2018-09-04T09:21:25.606Z,16.17
2018-09-04T09:23:30.994Z,15.63
2018-09-04T09:25:34.909Z,16.40
2018-09-04T09:27:38.788Z,15.03
2018-09-04T09:29:42.618Z,15.40
2018-09-04T09:31:46.439Z,15.33
2018-09-04T09:33:50.379Z,14.40
2018-09-04T09:35:54.216Z,14.03
2018-09-04T09:37:58.078Z,14.80
2018-09-04T09:40:02.035Z,13.60
2018-09-04T09:42:05.971Z,12.87
2018-09-04T09:44:09.849Z,12.80
2018-09-04T09:46:13.740Z,14.07
2018-09-04T09:48:17.615Z,13.30
2018-09-04T09:50:21.992Z,12.83
2018-09-04T09:52:25.826Z,12.10
2018-09-04T09:54:30.481Z,11.90
2018-09-04T09:56:34.373Z,11.70
2018-09-04T09:58:38.671Z,12.30
2018-09-04T10:00:47.753Z,13.37
2018-09-04T10:02:56.925Z,12.23
2018-09-04T10:05:00.882Z,11.13
2018-09-04T10:07:04.945Z,11.67
2018-09-04T10:09:09.224Z,10.07
2018-09-04T10:11:13.135Z,9.80
2018-09-04T10:13:17.101Z,7.47
2018-09-04T10:15:21.070Z,8.20
2018-09-04T10:17:24.977Z,7.87
2018-09-04T10:19:28.993Z,7.57
2018-09-04T10:21:32.907Z,7.80
2018-09-04T10:23:36.857Z,8.10
2018-09-04T10:25:40.793Z,8.07
2018-09-04T10:27:44.720Z,7.50
2018-09-04T10:29:48.751Z,7.80
2018-09-04T10:31:53.697Z,6.67
2018-09-04T10:33:57.832Z,6.67
2018-09-04T10:36:01.764Z,7.20
2018-09-04T10:38:05.851Z,6.80
2018-09-04T10:40:15.093Z,6.80
2018-09-04T10:42:24.228Z,6.83
2018-09-04T10:44:32.576Z,7.20
2018-09-04T10:46:36.488Z,6.53
2018-09-04T10:48:40.717Z,6.07
2018-09-04T10:50:44.603Z,6.30
2018-09-04T10:52:48.610Z,6.60
2018-09-04T10:54:53.170Z,6.77
2018-09-04T10:56:57.859Z,6.43
2018-09-04T10:59:04.492Z,6.70
2018-09-04T11:01:08.412Z,7.20
2018-09-04T11:03:12.648Z,5.60
2018-09-04T11:05:17.678Z,6.17
2018-09-04T11:07:22.068Z,6.83
2018-09-04T11:09:26.148Z,6.80
2018-09-04T11:11:30.092Z,5.87
2018-09-04T11:13:34.078Z,6.10
2018-09-04T11:15:38.068Z,5.40
2018-09-04T11:17:41.950Z,5.93
2018-09-04T11:19:46.712Z,6.13
2018-09-04T11:21:50.677Z,5.53
2018-09-04T11:23:54.581Z,4.93
2018-09-04T11:25:58.404Z,6.43
2018-09-04T11:28:02.307Z,5.30
2018-09-04T11:30:08.363Z,5.50
2018-09-04T11:32:12.329Z,5.73
2018-09-04T11:34:16.290Z,5.47
2018-09-04T11:36:20.140Z,5.63
2018-09-04T11:38:23.938Z,5.50
2018-09-04T11:40:27.884Z,5.77
2018-09-04T11:42:31.838Z,5.57
2018-09-04T11:44:35.733Z,5.57
2018-09-04T11:46:39.646Z,6.00
2018-09-04T11:48:43.557Z,6.40
2018-09-04T11:50:47.495Z,6.60
2018-09-04T11:52:51.391Z,6.43
2018-09-04T11:54:55.372Z,5.60
2018-09-04T11:56:59.876Z,6.07
2018-09-04T11:59:04.621Z,5.37
2018-09-04T12:01:10.798Z,5.43
2018-09-04T12:03:15.978Z,5.33
2018-09-04T12:05:19.866Z,5.30
2018-09-04T12:07:23.747Z,5.57
2018-09-04T12:09:27.651Z,5.23
2018-09-04T12:11:31.569Z,5.90
2018-09-04T12:13:35.500Z,5.40
2018-09-04T12:15:40.325Z,6.17
2018-09-04T12:17:44.185Z,5.93
2018-09-04T12:20:17.297Z,5.50
2018-09-04T12:22:21.330Z,5.40
2018-09-04T12:24:25.304Z,6.10
2018-09-04T12:26:29.750Z,5.97
2018-09-04T12:28:33.848Z,6.40
2018-09-04T12:30:37.798Z,5.20
2018-09-04T12:32:42.648Z,6.10
2018-09-04T12:34:46.654Z,6.10
2018-09-04T12:36:50.600Z,5.37
2018-09-04T12:38:54.593Z,5.20
2018-09-04T12:40:58.612Z,5.27
2018-09-04T12:43:03.446Z,4.70
2018-09-04T12:45:07.322Z,4.63
2018-09-04T12:47:11.264Z,4.80
2018-09-04T12:49:15.214Z,5.20
2018-09-04T12:51:19.191Z,5.77
2018-09-04T12:53:23.709Z,4.70
2018-09-04T12:55:27.796Z,4.93
2018-09-04T12:57:32.310Z,5.63
2018-09-04T12:59:36.345Z,5.30
2018-09-04T13:01:40.162Z,5.50
2018-09-04T13:03:44.048Z,5.10
2018-09-04T13:05:48.179Z,5.43
2018-09-04T13:07:52.067Z,6.00
2018-09-04T13:09:56.028Z,5.60
2018-09-04T13:11:59.889Z,5.77
2018-09-04T13:14:03.774Z,5.60
2018-09-04T13:16:07.754Z,5.50
2018-09-04T13:18:11.698Z,5.50
2018-09-04T13:20:15.710Z,5.80
2018-09-04T13:22:19.595Z,5.20
2018-09-04T13:24:23.506Z,4.83
2018-09-04T13:26:27.439Z,6.07
2018-09-04T13:28:32.034Z,5.43
2018-09-04T13:30:35.976Z,6.07
2018-09-04T13:32:40.003Z,6.30
2018-09-04T13:34:43.864Z,7.30
2018-09-04T13:36:47.720Z,7.10
2018-09-04T13:38:51.675Z,7.60
2018-09-04T13:41:00.734Z,7.07
2018-09-04T13:43:04.664Z,7.17
2018-09-04T13:45:08.604Z,7.20
2018-09-04T13:47:12.488Z,7.37
2018-09-04T13:49:16.431Z,6.40
2018-09-04T13:51:20.404Z,6.30
2018-09-04T13:53:24.295Z,6.13
2018-09-04T13:55:28.209Z,6.60
2018-09-04T13:57:32.004Z,6.07
2018-09-04T13:59:35.922Z,6.90
2018-09-04T14:01:40.023Z,6.50
2018-09-04T14:03:44.024Z,6.93
2018-09-04T14:05:48.023Z,6.17
2018-09-04T14:07:51.959Z,6.40
2018-09-04T14:09:55.872Z,7.27
2018-09-04T14:11:59.870Z,6.40
2018-09-04T14:14:03.763Z,6.00
2018-09-04T14:16:09.859Z,6.80
2018-09-04T14:18:13.778Z,6.80
2018-09-04T14:20:17.724Z,6.17
2018-09-04T14:22:21.676Z,6.37
2018-09-04T14:24:25.552Z,6.40
2018-09-04T14:26:29.519Z,6.30
2018-09-04T14:28:42.900Z,6.40
2018-09-04T14:30:37.471Z,6.03
2018-09-04T14:32:41.354Z,6.13
2018-09-04T14:34:45.376Z,5.80
2018-09-04T14:36:49.413Z,6.60
2018-09-04T14:38:53.308Z,5.60
2018-09-04T14:40:58.750Z,6.13
2018-09-04T14:43:04.317Z,6.30
2018-09-04T14:45:08.160Z,6.20
2018-09-04T14:47:12.075Z,5.30
2018-09-04T14:49:16.732Z,5.90
2018-09-04T14:51:20.665Z,5.97
2018-09-04T14:53:24.535Z,5.30
2018-09-04T14:55:28.592Z,6.43
2018-09-04T14:57:32.490Z,5.80
2018-09-04T14:59:36.382Z,5.40
2018-09-04T15:01:41.363Z,5.43
2018-09-04T15:03:45.334Z,5.67
2018-09-04T15:05:49.187Z,6.10
2018-09-04T15:07:53.361Z,6.10
2018-09-04T15:09:57.987Z,5.80
2018-09-04T15:12:03.704Z,6.70
2018-09-04T15:14:07.649Z,5.73
2018-09-04T15:16:11.485Z,7.00
2018-09-04T15:18:15.407Z,6.20
2018-09-04T15:20:20.561Z,6.20
2018-09-04T15:22:24.563Z,6.10
2018-09-04T15:24:32.106Z,6.00
2018-09-04T15:26:36.508Z,6.10
2018-09-04T15:28:42.370Z,5.30
2018-09-04T15:30:46.746Z,6.50
2018-09-04T15:32:59.150Z,5.87
2018-09-04T15:35:12.105Z,6.20
2018-09-04T15:37:17.214Z,6.00
2018-09-04T15:39:25.682Z,6.03
2018-09-04T15:41:30.246Z,5.87
2018-09-04T15:43:35.898Z,5.77
2018-09-04T15:45:39.687Z,6.17
2018-09-04T15:47:43.577Z,5.83
2018-09-04T15:49:48.421Z,5.97
2018-09-04T15:51:52.195Z,6.00
2018-09-04T15:53:56.090Z,5.57
2018-09-04T15:55:59.876Z,5.87
2018-09-04T15:58:03.727Z,5.20
2018-09-04T16:00:08.283Z,5.53
2018-09-04T16:02:12.358Z,5.80
2018-09-04T16:04:16.207Z,5.50
2018-09-04T16:06:20.186Z,5.90
2018-09-04T16:08:24.097Z,5.70
2018-09-04T16:10:27.918Z,5.60
2018-09-04T16:12:34.814Z,5.63
2018-09-04T16:14:39.698Z,5.40
2018-09-04T16:16:43.805Z,5.63
2018-09-04T16:18:47.642Z,5.80
2018-09-04T16:20:51.409Z,6.30
2018-09-04T16:22:55.359Z,5.43
2018-09-04T16:24:59.439Z,5.90
2018-09-04T16:27:03.339Z,5.67
2018-09-04T16:29:07.199Z,7.03
2018-09-04T16:31:10.957Z,5.30
2018-09-04T16:33:14.849Z,5.10
2018-09-04T16:35:18.713Z,6.47
2018-09-04T16:37:22.625Z,5.60
2018-09-04T16:39:26.493Z,6.63
2018-09-04T16:41:30.647Z,5.40
2018-09-04T16:43:41.464Z,6.47
2018-09-04T16:45:45.712Z,5.87
2018-09-04T16:47:49.617Z,5.67
2018-09-04T16:49:53.462Z,5.83
2018-09-04T16:51:59.348Z,5.87
2018-09-04T16:54:03.334Z,5.70
2018-09-04T16:56:07.459Z,6.30
2018-09-04T16:58:11.507Z,6.07
2018-09-04T17:00:15.337Z,6.10
2018-09-04T17:02:19.174Z,6.30
2018-09-04T17:04:23.308Z,6.13
2018-09-04T17:06:27.245Z,6.03
2018-09-04T17:08:32.183Z,5.70
2018-09-04T17:10:36.067Z,6.37
2018-09-04T17:12:40.348Z,5.80
2018-09-04T17:14:44.301Z,5.33
2018-09-04T17:16:48.088Z,5.60
2018-09-04T17:18:51.922Z,5.63
2018-09-04T17:20:55.844Z,5.60
2018-09-04T17:23:01.580Z,5.90
2018-09-04T17:25:05.667Z,6.53
2018-09-04T17:27:09.487Z,6.40
2018-09-04T17:29:13.326Z,6.13
2018-09-04T17:31:17.115Z,5.00
2018-09-04T17:33:21.030Z,5.90
2018-09-04T17:35:25.061Z,5.97
2018-09-04T17:37:29.105Z,6.30
2018-09-04T17:39:34.880Z,6.10
2018-09-04T17:41:38.758Z,6.77
2018-09-04T17:43:43.381Z,5.93
2018-09-04T17:45:48.563Z,6.00
2018-09-04T17:47:52.670Z,6.23
2018-09-04T17:49:57.287Z,6.40
2018-09-04T17:52:01.837Z,6.37
2018-09-04T17:54:06.571Z,6.77
2018-09-04T17:56:10.733Z,6.67
2018-09-04T17:58:15.031Z,6.43
2018-09-04T18:00:19.111Z,6.40
2018-09-04T18:02:28.826Z,6.80
2018-09-04T18:04:33.561Z,6.83
2018-09-04T18:06:37.711Z,7.10
2018-09-04T18:08:41.690Z,7.10
2018-09-04T18:10:45.574Z,6.70
2018-09-04T18:12:52.613Z,8.20
2018-09-04T18:14:56.659Z,7.07
2018-09-04T18:17:00.584Z,7.73
2018-09-04T18:19:05.237Z,15.07
2018-09-04T18:21:11.916Z,8.73
2018-09-04T18:23:18.136Z,8.57
2018-09-04T18:25:24.247Z,8.30
2018-09-04T18:27:29.492Z,7.83
2018-09-04T18:29:33.410Z,7.77
2018-09-04T18:31:38.021Z,8.70
2018-09-04T18:33:46.021Z,8.07
2018-09-04T18:36:00.625Z,7.77
2018-09-04T18:38:05.236Z,7.87
2018-09-04T18:40:09.994Z,6.90
2018-09-04T18:42:14.762Z,7.47
2018-09-04T18:44:19.051Z,7.27
2018-09-04T18:46:27.798Z,7.20
2018-09-04T18:48:40.411Z,8.00
2018-09-04T18:50:44.760Z,7.33
2018-09-04T18:52:49.499Z,7.30
2018-09-04T18:54:56.855Z,7.30
2018-09-04T18:57:00.887Z,8.03
2018-09-04T18:59:05.498Z,7.43
2018-09-04T19:01:09.716Z,7.83
2018-09-04T19:03:13.933Z,7.80
2018-09-04T19:05:19.381Z,6.90
2018-09-04T19:07:23.518Z,7.50
2018-09-04T19:09:31.273Z,7.67
2018-09-04T19:11:35.157Z,7.43
2018-09-04T19:13:40.047Z,7.90
2018-09-04T19:15:43.875Z,7.30
2018-09-04T19:17:50.099Z,8.80
2018-09-04T19:19:56.208Z,6.70
2018-09-04T19:22:00.182Z,7.10
2018-09-04T19:24:11.499Z,6.50
2018-09-04T19:26:15.600Z,8.03
2018-09-04T19:28:19.538Z,7.60
2018-09-04T19:30:23.523Z,6.87
2018-09-04T19:32:29.762Z,8.47
2018-09-04T19:34:34.264Z,7.30
2018-09-04T19:36:40.074Z,6.80
2018-09-04T19:38:53.279Z,7.50
2018-09-04T19:40:57.136Z,8.00
2018-09-04T19:43:01.008Z,8.63
2018-09-04T19:45:05.323Z,8.13
2018-09-04T19:47:09.158Z,7.70
2018-09-04T19:49:13.165Z,8.27
2018-09-04T19:51:17.092Z,7.73
2018-09-04T19:53:21.131Z,7.60
2018-09-04T19:55:25.054Z,7.53
2018-09-04T19:57:29.927Z,7.50
2018-09-04T19:59:33.777Z,7.77
2018-09-04T20:01:40.318Z,7.60
2018-09-04T20:03:44.917Z,8.83
2018-09-04T20:05:50.387Z,8.20
2018-09-04T20:07:58.877Z,8.77
2018-09-04T20:10:04.278Z,8.17
2018-09-04T20:12:08.260Z,8.40
2018-09-04T20:14:17.415Z,7.77
2018-09-04T20:16:22.920Z,7.80
2018-09-04T20:18:28.048Z,7.73
2018-09-04T20:20:32.375Z,7.73
2018-09-04T20:22:36.974Z,7.47
2018-09-04T20:24:43.954Z,7.47
2018-09-04T20:26:50.394Z,8.03
2018-09-04T20:28:54.545Z,7.83
2018-09-04T20:30:58.697Z,7.70
2018-09-04T20:33:02.607Z,7.83
2018-09-04T20:35:06.517Z,8.33
2018-09-04T20:37:10.390Z,8.57
2018-09-04T20:39:14.370Z,7.97
2018-09-04T20:41:19.181Z,7.90
2018-09-04T20:43:23.443Z,8.83
2018-09-04T20:45:27.363Z,10.40
2018-09-04T20:47:31.354Z,8.30
2018-09-04T20:49:35.171Z,8.57
2018-09-04T20:51:39.107Z,8.60
2018-09-04T20:53:42.951Z,9.00
2018-09-04T20:55:46.911Z,9.00
2018-09-04T20:58:02.011Z,8.63
2018-09-04T21:00:19.862Z,7.50
2018-09-04T21:02:34.961Z,8.10
2018-09-04T21:04:49.787Z,7.73
2018-09-04T21:06:53.989Z,8.80
2018-09-04T21:10:04.975Z,8.87
2018-09-04T21:12:09.546Z,7.63
2018-09-04T21:14:13.374Z,8.57
2018-09-04T21:16:17.289Z,8.57
2018-09-04T21:18:21.191Z,8.37
2018-09-04T21:20:25.298Z,8.03
2018-09-04T21:22:29.326Z,9.10
2018-09-04T21:24:33.190Z,7.70
2018-09-04T21:26:37.092Z,7.70
2018-09-04T21:28:40.907Z,8.90
2018-09-04T21:30:44.972Z,8.23
2018-09-04T21:32:49.538Z,8.60
2018-09-04T21:34:53.447Z,8.90
2018-09-04T21:36:57.416Z,9.53
2018-09-04T21:39:01.288Z,8.80
2018-09-04T21:41:05.265Z,8.70
2018-09-04T21:43:09.113Z,9.00
2018-09-04T21:45:12.975Z,7.80
2018-09-04T21:47:16.871Z,7.90
2018-09-04T21:49:20.743Z,7.43
2018-09-04T21:51:24.582Z,7.67
2018-09-04T21:53:28.658Z,8.50
2018-09-04T21:55:32.476Z,8.37
2018-09-04T21:57:36.422Z,7.90
2018-09-04T21:59:40.247Z,7.70
2018-09-04T22:01:44.144Z,8.70
2018-09-04T22:03:48.547Z,7.90
2018-09-04T22:05:52.578Z,8.17
2018-09-04T22:07:57.652Z,8.57
2018-09-04T22:10:01.497Z,8.77
2018-09-04T22:12:06.358Z,9.93
2018-09-04T22:14:10.433Z,8.20
2018-09-04T22:16:16.325Z,8.60
2018-09-04T22:18:20.871Z,8.37
2018-09-04T22:20:25.770Z,8.40
2018-09-04T22:22:29.676Z,8.10
2018-09-04T22:24:35.438Z,8.40
2018-09-04T22:26:42.770Z,8.00
2018-09-04T22:28:47.186Z,8.20
2018-09-04T22:30:51.058Z,7.93
2018-09-04T22:32:55.448Z,7.70
2018-09-04T22:34:59.340Z,8.03
2018-09-04T22:37:03.863Z,8.63
2018-09-04T22:39:09.547Z,8.60
2018-09-04T22:41:13.479Z,8.57
2018-09-04T22:43:18.264Z,9.17
2018-09-04T22:45:22.244Z,7.67
2018-09-04T22:47:26.363Z,8.43
2018-09-04T22:49:30.367Z,8.80
2018-09-04T22:51:36.262Z,9.37
2018-09-04T22:53:41.244Z,8.70
2018-09-04T22:55:45.410Z,9.40
2018-09-04T22:57:49.433Z,9.50
2018-09-04T22:59:53.426Z,9.10
2018-09-04T23:01:57.463Z,8.67
2018-09-04T23:04:03.194Z,8.70
2018-09-04T23:06:07.021Z,8.40
2018-09-04T23:08:11.923Z,8.80
2018-09-04T23:10:17.119Z,8.93
2018-09-04T23:12:21.067Z,8.43
2018-09-04T23:14:27.342Z,8.67
2018-09-04T23:16:31.482Z,8.47
2018-09-04T23:18:35.441Z,8.83
2018-09-04T23:20:39.327Z,8.10
2018-09-04T23:22:43.178Z,8.73
2018-09-04T23:24:47.099Z,8.33
2018-09-04T23:26:51.178Z,8.63
2018-09-04T23:28:55.171Z,8.77
2018-09-04T23:30:59.238Z,9.60
2018-09-04T23:33:03.264Z,7.93
2018-09-04T23:35:07.251Z,8.50
2018-09-04T23:37:11.127Z,8.03
2018-09-04T23:39:15.003Z,7.70
2018-09-04T23:41:18.864Z,8.83
2018-09-04T23:43:22.758Z,8.90
2018-09-04T23:45:26.590Z,7.80
2018-09-04T23:47:30.469Z,8.43
2018-09-04T23:49:34.338Z,8.80
2018-09-04T23:51:38.196Z,9.13
2018-09-04T23:53:42.145Z,8.97
2018-09-04T23:55:46.174Z,8.60
2018-09-04T23:57:50.116Z,9.13
2018-09-04T23:59:54.272Z,9.00
